Terminal Aerodrome Forecast
Issued by NWS Melbourne, FL

Home | Current Version | Previous Version | Text Only | Print | Product List | Glossary On
Versions: 1 2 3 4 5 6 7 8 9 10 11 12 13 14 15 16
000
FTUS42 KMLB 302300 RRA
TAFMLB
TAF
KMLB 302354Z 3100/3124 12008KT P6SM SCT060
      TEMPO 3100/3102 BKN060
     FM310200 VRB03KT P6SM SCT250
     FM311400 15005KT P6SM SCT025
     FM311700 11009KT P6SM VCTS BKN035CB
     FM312200 12007KT P6SM SCT040 BKN120=

USA.gov is the U.S. government's official web portal to all federal, state and local government web resources and services.